sensor_id;sensor_type;location;lat;lon;timestamp;P1;durP1;ratioP1;P2;durP2;ratioP2
80987;SDS011;70452;39.386;-3.210;2024-01-10T00:01:55;7.10;;;2.85;;
80987;SDS011;70452;39.386;-3.210;2024-01-10T00:04:28;9.57;;;3.30;;
80987;SDS011;70452;39.386;-3.210;2024-01-10T00:07:06;11.70;;;4.07;;
80987;SDS011;70452;39.386;-3.210;2024-01-10T00:09:37;17.00;;;6.38;;
80987;SDS011;70452;39.386;-3.210;2024-01-10T00:12:11;15.30;;;5.63;;
80987;SDS011;70452;39.386;-3.210;2024-01-10T00:14:48;17.05;;;6.35;;
80987;SDS011;70452;39.386;-3.210;2024-01-10T00:17:22;11.57;;;5.35;;
80987;SDS011;70452;39.386;-3.210;2024-01-10T00:19:53;12.55;;;5.40;;
80987;SDS011;70452;39.386;-3.210;2024-01-10T00:22:28;11.90;;;4.20;;
80987;SDS011;70452;39.386;-3.210;2024-01-10T00:25:06;9.13;;;3.83;;
80987;SDS011;70452;39.386;-3.210;2024-01-10T00:27:43;10.30;;;3.83;;
80987;SDS011;70452;39.386;-3.210;2024-01-10T00:30:22;8.65;;;3.70;;
80987;SDS011;70452;39.386;-3.210;2024-01-10T00:32:51;11.65;;;4.10;;
80987;SDS011;70452;39.386;-3.210;2024-01-10T00:35:30;11.70;;;5.40;;
80987;SDS011;70452;39.386;-3.210;2024-01-10T00:37:59;10.00;;;2.95;;
80987;SDS011;70452;39.386;-3.210;2024-01-10T00:40:33;14.68;;;4.88;;
80987;SDS011;70452;39.386;-3.210;2024-01-10T00:43:08;10.57;;;5.20;;
80987;SDS011;70452;39.386;-3.210;2024-01-10T00:45:43;14.57;;;5.38;;
80987;SDS011;70452;39.386;-3.210;2024-01-10T00:48:15;13.63;;;5.38;;
80987;SDS011;70452;39.386;-3.210;2024-01-10T00:50:50;15.30;;;5.78;;
80987;SDS011;70452;39.386;-3.210;2024-01-10T00:53:29;11.55;;;4.63;;
80987;SDS011;70452;39.386;-3.210;2024-01-10T00:55:57;11.13;;;5.10;;
80987;SDS011;70452;39.386;-3.210;2024-01-10T00:58:23;13.93;;;5.70;;
80987;SDS011;70452;39.386;-3.210;2024-01-10T01:01:02;16.88;;;6.72;;
80987;SDS011;70452;39.386;-3.210;2024-01-10T01:03:37;11.13;;;4.53;;
80987;SDS011;70452;39.386;-3.210;2024-01-10T01:06:08;13.45;;;5.45;;
80987;SDS011;70452;39.386;-3.210;2024-01-10T01:08:51;11.52;;;4.70;;
80987;SDS011;70452;39.386;-3.210;2024-01-10T01:11:32;12.23;;;4.32;;
80987;SDS011;70452;39.386;-3.210;2024-01-10T01:14:03;12.93;;;5.20;;
80987;SDS011;70452;39.386;-3.210;2024-01-10T01:16:41;10.82;;;3.65;;
80987;SDS011;70452;39.386;-3.210;2024-01-10T01:19:19;14.73;;;5.13;;
80987;SDS011;70452;39.386;-3.210;2024-01-10T01:21:56;11.30;;;4.88;;
80987;SDS011;70452;39.386;-3.210;2024-01-10T01:24:27;11.55;;;5.00;;
80987;SDS011;70452;39.386;-3.210;2024-01-10T01:27:03;9.80;;;3.80;;
80987;SDS011;70452;39.386;-3.210;2024-01-10T01:29:36;11.30;;;4.97;;
80987;SDS011;70452;39.386;-3.210;2024-01-10T01:32:28;10.15;;;4.15;;
80987;SDS011;70452;39.386;-3.210;2024-01-10T01:34:56;12.85;;;3.40;;
80987;SDS011;70452;39.386;-3.210;2024-01-10T01:37:33;8.93;;;4.05;;
80987;SDS011;70452;39.386;-3.210;2024-01-10T01:40:12;10.18;;;4.38;;
80987;SDS011;70452;39.386;-3.210;2024-01-10T01:42:49;12.10;;;3.70;;
80987;SDS011;70452;39.386;-3.210;2024-01-10T01:45:29;11.75;;;4.60;;
80987;SDS011;70452;39.386;-3.210;2024-01-10T01:48:05;11.13;;;5.32;;
80987;SDS011;70452;39.386;-3.210;2024-01-10T01:50:37;11.43;;;3.65;;
80987;SDS011;70452;39.386;-3.210;2024-01-10T01:53:06;10.93;;;3.95;;
80987;SDS011;70452;39.386;-3.210;2024-01-10T01:55:41;9.10;;;3.35;;
80987;SDS011;70452;39.386;-3.210;2024-01-10T01:58:13;11.35;;;4.22;;
80987;SDS011;70452;39.386;-3.210;2024-01-10T02:00:47;10.18;;;4.38;;
80987;SDS011;70452;39.386;-3.210;2024-01-10T02:03:23;10.75;;;3.88;;
80987;SDS011;70452;39.386;-3.210;2024-01-10T02:05:53;14.60;;;5.38;;
80987;SDS011;70452;39.386;-3.210;2024-01-10T02:08:28;13.15;;;5.22;;
80987;SDS011;70452;39.386;-3.210;2024-01-10T02:11:09;19.92;;;5.95;;
80987;SDS011;70452;39.386;-3.210;2024-01-10T02:13:40;13.05;;;4.72;;
80987;SDS011;70452;39.386;-3.210;2024-01-10T02:16:12;14.70;;;4.32;;
80987;SDS011;70452;39.386;-3.210;2024-01-10T02:18:48;13.05;;;4.72;;
80987;SDS011;70452;39.386;-3.210;2024-01-10T02:21:25;11.02;;;4.82;;
80987;SDS011;70452;39.386;-3.210;2024-01-10T02:24:15;10.23;;;3.78;;
80987;SDS011;70452;39.386;-3.210;2024-01-10T02:26:52;7.57;;;2.60;;
80987;SDS011;70452;39.386;-3.210;2024-01-10T02:29:26;9.48;;;4.07;;
80987;SDS011;70452;39.386;-3.210;2024-01-10T02:32:01;10.52;;;3.88;;
80987;SDS011;70452;39.386;-3.210;2024-01-10T02:34:38;8.93;;;3.63;;
80987;SDS011;70452;39.386;-3.210;2024-01-10T02:37:10;10.40;;;4.03;;
80987;SDS011;70452;39.386;-3.210;2024-01-10T02:39:42;14.15;;;5.22;;
80987;SDS011;70452;39.386;-3.210;2024-01-10T02:42:14;13.23;;;4.82;;
80987;SDS011;70452;39.386;-3.210;2024-01-10T02:44:48;13.80;;;4.88;;
80987;SDS011;70452;39.386;-3.210;2024-01-10T02:47:19;11.10;;;4.65;;
80987;SDS011;70452;39.386;-3.210;2024-01-10T02:49:49;11.85;;;4.45;;
80987;SDS011;70452;39.386;-3.210;2024-01-10T02:52:25;9.70;;;2.75;;
80987;SDS011;70452;39.386;-3.210;2024-01-10T02:55:15;11.38;;;4.50;;
80987;SDS011;70452;39.386;-3.210;2024-01-10T02:57:53;10.68;;;4.20;;
80987;SDS011;70452;39.386;-3.210;2024-01-10T03:00:28;11.60;;;4.40;;
80987;SDS011;70452;39.386;-3.210;2024-01-10T03:03:06;10.38;;;3.78;;
80987;SDS011;70452;39.386;-3.210;2024-01-10T03:05:40;8.43;;;2.92;;
80987;SDS011;70452;39.386;-3.210;2024-01-10T03:08:11;11.05;;;4.50;;
80987;SDS011;70452;39.386;-3.210;2024-01-10T03:10:42;10.90;;;4.32;;
80987;SDS011;70452;39.386;-3.210;2024-01-10T03:13:18;9.73;;;4.80;;
80987;SDS011;70452;39.386;-3.210;2024-01-10T03:15:52;13.73;;;5.22;;
80987;SDS011;70452;39.386;-3.210;2024-01-10T03:18:18;11.80;;;4.80;;
80987;SDS011;70452;39.386;-3.210;2024-01-10T03:20:47;9.38;;;4.18;;
80987;SDS011;70452;39.386;-3.210;2024-01-10T03:23:22;11.80;;;5.25;;
80987;SDS011;70452;39.386;-3.210;2024-01-10T03:25:58;9.43;;;3.80;;
80987;SDS011;70452;39.386;-3.210;2024-01-10T03:28:35;13.25;;;5.45;;
80987;SDS011;70452;39.386;-3.210;2024-01-10T03:31:07;8.77;;;3.20;;
80987;SDS011;70452;39.386;-3.210;2024-01-10T03:33:45;11.18;;;4.55;;
80987;SDS011;70452;39.386;-3.210;2024-01-10T03:36:22;9.05;;;3.25;;
80987;SDS011;70452;39.386;-3.210;2024-01-10T03:38:58;12.77;;;4.25;;
80987;SDS011;70452;39.386;-3.210;2024-01-10T03:41:44;13.00;;;4.40;;
80987;SDS011;70452;39.386;-3.210;2024-01-10T03:44:22;17.30;;;5.50;;
80987;SDS011;70452;39.386;-3.210;2024-01-10T03:46:55;10.55;;;4.70;;
80987;SDS011;70452;39.386;-3.210;2024-01-10T03:49:31;10.18;;;3.65;;
80987;SDS011;70452;39.386;-3.210;2024-01-10T03:52:05;12.52;;;3.53;;
80987;SDS011;70452;39.386;-3.210;2024-01-10T03:54:40;7.32;;;2.05;;
80987;SDS011;70452;39.386;-3.210;2024-01-10T03:57:12;8.00;;;2.53;;
80987;SDS011;70452;39.386;-3.210;2024-01-10T03:59:40;10.02;;;3.75;;
80987;SDS011;70452;39.386;-3.210;2024-01-10T04:02:15;9.07;;;3.75;;
80987;SDS011;70452;39.386;-3.210;2024-01-10T04:04:51;8.05;;;3.15;;
80987;SDS011;70452;39.386;-3.210;2024-01-10T04:07:22;6.05;;;1.88;;
80987;SDS011;70452;39.386;-3.210;2024-01-10T04:10:03;7.57;;;2.63;;
80987;SDS011;70452;39.386;-3.210;2024-01-10T04:12:41;8.52;;;2.85;;
80987;SDS011;70452;39.386;-3.210;2024-01-10T04:15:22;15.93;;;3.42;;
80987;SDS011;70452;39.386;-3.210;2024-01-10T04:17:53;9.07;;;2.72;;
80987;SDS011;70452;39.386;-3.210;2024-01-10T04:20:28;11.48;;;5.60;;
80987;SDS011;70452;39.386;-3.210;2024-01-10T04:23:03;11.07;;;4.10;;
80987;SDS011;70452;39.386;-3.210;2024-01-10T04:25:37;9.93;;;3.63;;
80987;SDS011;70452;39.386;-3.210;2024-01-10T04:28:16;8.75;;;3.95;;
80987;SDS011;70452;39.386;-3.210;2024-01-10T04:30:55;14.63;;;5.22;;
80987;SDS011;70452;39.386;-3.210;2024-01-10T04:33:32;11.98;;;5.25;;
80987;SDS011;70452;39.386;-3.210;2024-01-10T04:36:07;11.68;;;4.80;;
80987;SDS011;70452;39.386;-3.210;2024-01-10T04:38:47;13.60;;;4.93;;
80987;SDS011;70452;39.386;-3.210;2024-01-10T04:41:19;12.73;;;5.38;;
80987;SDS011;70452;39.386;-3.210;2024-01-10T04:43:50;12.40;;;5.45;;
80987;SDS011;70452;39.386;-3.210;2024-01-10T04:46:24;13.77;;;5.60;;
80987;SDS011;70452;39.386;-3.210;2024-01-10T04:48:55;11.48;;;4.05;;
80987;SDS011;70452;39.386;-3.210;2024-01-10T04:51:23;11.73;;;5.25;;
80987;SDS011;70452;39.386;-3.210;2024-01-10T04:54:06;11.40;;;5.38;;
80987;SDS011;70452;39.386;-3.210;2024-01-10T04:56:52;10.68;;;3.40;;
80987;SDS011;70452;39.386;-3.210;2024-01-10T04:59:24;10.18;;;3.58;;
80987;SDS011;70452;39.386;-3.210;2024-01-10T05:02:01;13.40;;;5.97;;
80987;SDS011;70452;39.386;-3.210;2024-01-10T05:04:53;9.20;;;2.92;;
80987;SDS011;70452;39.386;-3.210;2024-01-10T05:07:28;7.40;;;2.47;;
80987;SDS011;70452;39.386;-3.210;2024-01-10T05:10:10;12.35;;;4.75;;
80987;SDS011;70452;39.386;-3.210;2024-01-10T05:12:42;11.48;;;4.93;;
80987;SDS011;70452;39.386;-3.210;2024-01-10T05:15:14;12.57;;;4.63;;
80987;SDS011;70452;39.386;-3.210;2024-01-10T05:17:54;14.10;;;6.18;;
80987;SDS011;70452;39.386;-3.210;2024-01-10T05:20:25;12.50;;;4.82;;
80987;SDS011;70452;39.386;-3.210;2024-01-10T05:23:14;12.77;;;5.38;;
80987;SDS011;70452;39.386;-3.210;2024-01-10T05:25:48;12.48;;;4.75;;
80987;SDS011;70452;39.386;-3.210;2024-01-10T05:28:21;11.25;;;4.40;;
80987;SDS011;70452;39.386;-3.210;2024-01-10T05:30:57;12.75;;;5.38;;
80987;SDS011;70452;39.386;-3.210;2024-01-10T05:33:27;16.13;;;6.15;;
80987;SDS011;70452;39.386;-3.210;2024-01-10T05:35:59;13.77;;;6.47;;
80987;SDS011;70452;39.386;-3.210;2024-01-10T05:38:28;13.65;;;5.68;;
80987;SDS011;70452;39.386;-3.210;2024-01-10T05:40:58;12.27;;;4.60;;
80987;SDS011;70452;39.386;-3.210;2024-01-10T05:43:31;10.82;;;5.40;;
80987;SDS011;70452;39.386;-3.210;2024-01-10T05:45:59;10.68;;;4.43;;
80987;SDS011;70452;39.386;-3.210;2024-01-10T05:48:48;10.13;;;4.18;;
80987;SDS011;70452;39.386;-3.210;2024-01-10T05:51:20;9.23;;;4.03;;
80987;SDS011;70452;39.386;-3.210;2024-01-10T05:53:54;7.07;;;3.17;;
80987;SDS011;70452;39.386;-3.210;2024-01-10T05:56:26;13.60;;;4.70;;
80987;SDS011;70452;39.386;-3.210;2024-01-10T05:58:58;12.60;;;5.45;;
80987;SDS011;70452;39.386;-3.210;2024-01-10T06:01:29;8.75;;;3.35;;
80987;SDS011;70452;39.386;-3.210;2024-01-10T06:04:00;11.30;;;4.57;;
80987;SDS011;70452;39.386;-3.210;2024-01-10T06:06:36;8.52;;;3.60;;
80987;SDS011;70452;39.386;-3.210;2024-01-10T06:09:11;9.20;;;3.92;;
80987;SDS011;70452;39.386;-3.210;2024-01-10T06:14:22;7.93;;;3.15;;
80987;SDS011;70452;39.386;-3.210;2024-01-10T06:16:59;10.60;;;3.95;;
80987;SDS011;70452;39.386;-3.210;2024-01-10T06:19:48;9.48;;;3.70;;
80987;SDS011;70452;39.386;-3.210;2024-01-10T06:22:43;11.85;;;4.85;;
80987;SDS011;70452;39.386;-3.210;2024-01-10T06:25:21;9.23;;;4.03;;
80987;SDS011;70452;39.386;-3.210;2024-01-10T06:27:55;10.30;;;4.28;;
80987;SDS011;70452;39.386;-3.210;2024-01-10T06:30:33;11.82;;;5.30;;
80987;SDS011;70452;39.386;-3.210;2024-01-10T06:33:10;13.05;;;6.72;;
80987;SDS011;70452;39.386;-3.210;2024-01-10T06:35:39;13.90;;;6.38;;
80987;SDS011;70452;39.386;-3.210;2024-01-10T06:38:18;12.35;;;5.10;;
80987;SDS011;70452;39.386;-3.210;2024-01-10T06:40:47;14.80;;;6.53;;
80987;SDS011;70452;39.386;-3.210;2024-01-10T06:43:22;14.82;;;6.78;;
80987;SDS011;70452;39.386;-3.210;2024-01-10T06:45:48;17.95;;;7.93;;
80987;SDS011;70452;39.386;-3.210;2024-01-10T06:48:21;16.67;;;7.07;;
80987;SDS011;70452;39.386;-3.210;2024-01-10T06:51:00;17.65;;;6.93;;
80987;SDS011;70452;39.386;-3.210;2024-01-10T06:53:42;16.98;;;7.47;;
80987;SDS011;70452;39.386;-3.210;2024-01-10T06:56:11;15.32;;;6.70;;
80987;SDS011;70452;39.386;-3.210;2024-01-10T06:58:45;16.52;;;7.45;;
80987;SDS011;70452;39.386;-3.210;2024-01-10T07:01:20;14.82;;;6.55;;
80987;SDS011;70452;39.386;-3.210;2024-01-10T07:03:53;13.50;;;5.88;;
80987;SDS011;70452;39.386;-3.210;2024-01-10T07:06:21;15.30;;;6.20;;
80987;SDS011;70452;39.386;-3.210;2024-01-10T07:09:04;11.88;;;5.93;;
80987;SDS011;70452;39.386;-3.210;2024-01-10T07:11:44;14.55;;;6.00;;
80987;SDS011;70452;39.386;-3.210;2024-01-10T07:14:24;14.75;;;6.40;;
80987;SDS011;70452;39.386;-3.210;2024-01-10T07:16:59;14.13;;;6.05;;
80987;SDS011;70452;39.386;-3.210;2024-01-10T07:19:40;15.73;;;6.85;;
80987;SDS011;70452;39.386;-3.210;2024-01-10T07:22:26;14.25;;;6.05;;
80987;SDS011;70452;39.386;-3.210;2024-01-10T07:24:59;17.00;;;7.35;;
80987;SDS011;70452;39.386;-3.210;2024-01-10T07:27:39;15.75;;;8.52;;
80987;SDS011;70452;39.386;-3.210;2024-01-10T07:30:28;13.23;;;6.20;;
80987;SDS011;70452;39.386;-3.210;2024-01-10T07:33:03;15.57;;;5.78;;
80987;SDS011;70452;39.386;-3.210;2024-01-10T07:35:38;16.75;;;7.60;;
80987;SDS011;70452;39.386;-3.210;2024-01-10T07:38:10;14.02;;;6.45;;
80987;SDS011;70452;39.386;-3.210;2024-01-10T07:40:53;14.55;;;5.63;;
80987;SDS011;70452;39.386;-3.210;2024-01-10T07:43:27;12.63;;;5.78;;
80987;SDS011;70452;39.386;-3.210;2024-01-10T07:45:58;12.20;;;5.28;;
80987;SDS011;70452;39.386;-3.210;2024-01-10T07:48:34;18.27;;;7.22;;
80987;SDS011;70452;39.386;-3.210;2024-01-10T07:51:05;13.15;;;6.05;;
80987;SDS011;70452;39.386;-3.210;2024-01-10T07:53:40;12.15;;;6.00;;
80987;SDS011;70452;39.386;-3.210;2024-01-10T07:56:11;15.15;;;6.50;;
80987;SDS011;70452;39.386;-3.210;2024-01-10T07:58:48;14.23;;;6.53;;
80987;SDS011;70452;39.386;-3.210;2024-01-10T08:01:22;17.45;;;7.65;;
80987;SDS011;70452;39.386;-3.210;2024-01-10T08:03:58;14.57;;;6.53;;
80987;SDS011;70452;39.386;-3.210;2024-01-10T08:06:32;15.50;;;6.70;;
80987;SDS011;70452;39.386;-3.210;2024-01-10T08:09:04;13.65;;;6.45;;
80987;SDS011;70452;39.386;-3.210;2024-01-10T08:11:52;14.05;;;6.60;;
80987;SDS011;70452;39.386;-3.210;2024-01-10T08:14:24;19.77;;;8.10;;
80987;SDS011;70452;39.386;-3.210;2024-01-10T08:16:58;17.27;;;8.32;;
80987;SDS011;70452;39.386;-3.210;2024-01-10T08:19:31;14.95;;;6.80;;
80987;SDS011;70452;39.386;-3.210;2024-01-10T08:22:25;14.65;;;6.68;;
80987;SDS011;70452;39.386;-3.210;2024-01-10T08:24:56;12.43;;;5.85;;
80987;SDS011;70452;39.386;-3.210;2024-01-10T08:27:31;16.92;;;6.88;;
80987;SDS011;70452;39.386;-3.210;2024-01-10T08:30:03;17.25;;;8.18;;
80987;SDS011;70452;39.386;-3.210;2024-01-10T08:35:36;17.50;;;7.13;;
80987;SDS011;70452;39.386;-3.210;2024-01-10T08:38:07;13.35;;;6.03;;
80987;SDS011;70452;39.386;-3.210;2024-01-10T08:40:39;13.60;;;6.38;;
80987;SDS011;70452;39.386;-3.210;2024-01-10T08:43:12;15.68;;;7.18;;
80987;SDS011;70452;39.386;-3.210;2024-01-10T08:45:45;13.75;;;6.57;;
80987;SDS011;70452;39.386;-3.210;2024-01-10T08:48:19;15.23;;;6.47;;
80987;SDS011;70452;39.386;-3.210;2024-01-10T08:51:06;12.13;;;6.30;;
80987;SDS011;70452;39.386;-3.210;2024-01-10T08:53:39;15.23;;;6.75;;
80987;SDS011;70452;39.386;-3.210;2024-01-10T08:56:15;13.18;;;6.57;;
80987;SDS011;70452;39.386;-3.210;2024-01-10T08:58:46;14.98;;;7.32;;
80987;SDS011;70452;39.386;-3.210;2024-01-10T09:03:59;12.73;;;6.75;;
80987;SDS011;70452;39.386;-3.210;2024-01-10T09:06:31;12.60;;;6.47;;
80987;SDS011;70452;39.386;-3.210;2024-01-10T09:09:05;13.68;;;6.07;;
80987;SDS011;70452;39.386;-3.210;2024-01-10T09:11:37;12.27;;;5.55;;
80987;SDS011;70452;39.386;-3.210;2024-01-10T09:14:12;15.55;;;7.85;;
80987;SDS011;70452;39.386;-3.210;2024-01-10T09:16:46;11.10;;;5.18;;
80987;SDS011;70452;39.386;-3.210;2024-01-10T09:19:18;10.70;;;4.65;;
80987;SDS011;70452;39.386;-3.210;2024-01-10T09:21:55;9.52;;;4.32;;
80987;SDS011;70452;39.386;-3.210;2024-01-10T09:24:29;10.57;;;4.40;;
80987;SDS011;70452;39.386;-3.210;2024-01-10T09:26:57;11.18;;;5.00;;
80987;SDS011;70452;39.386;-3.210;2024-01-10T09:29:43;12.13;;;4.50;;
80987;SDS011;70452;39.386;-3.210;2024-01-10T09:32:11;9.63;;;4.20;;
80987;SDS011;70452;39.386;-3.210;2024-01-10T09:34:51;15.85;;;6.40;;
80987;SDS011;70452;39.386;-3.210;2024-01-10T09:37:23;11.23;;;4.40;;
80987;SDS011;70452;39.386;-3.210;2024-01-10T09:39:55;11.85;;;4.93;;
80987;SDS011;70452;39.386;-3.210;2024-01-10T09:42:23;14.75;;;8.60;;
80987;SDS011;70452;39.386;-3.210;2024-01-10T09:45:01;19.77;;;7.50;;
80987;SDS011;70452;39.386;-3.210;2024-01-10T09:47:32;14.95;;;4.63;;
80987;SDS011;70452;39.386;-3.210;2024-01-10T09:50:03;9.65;;;3.80;;
80987;SDS011;70452;39.386;-3.210;2024-01-10T09:53:06;9.40;;;3.75;;
80987;SDS011;70452;39.386;-3.210;2024-01-10T09:55:38;14.77;;;5.88;;
80987;SDS011;70452;39.386;-3.210;2024-01-10T09:58:15;10.55;;;4.43;;
80987;SDS011;70452;39.386;-3.210;2024-01-10T10:01:04;10.93;;;3.75;;
80987;SDS011;70452;39.386;-3.210;2024-01-10T10:03:41;10.73;;;4.03;;
80987;SDS011;70452;39.386;-3.210;2024-01-10T10:06:24;8.38;;;3.58;;
80987;SDS011;70452;39.386;-3.210;2024-01-10T10:09:04;11.13;;;4.60;;
80987;SDS011;70452;39.386;-3.210;2024-01-10T10:11:38;10.75;;;4.35;;
80987;SDS011;70452;39.386;-3.210;2024-01-10T10:14:16;10.45;;;4.22;;
80987;SDS011;70452;39.386;-3.210;2024-01-10T10:16:51;10.75;;;4.47;;
80987;SDS011;70452;39.386;-3.210;2024-01-10T10:19:43;11.73;;;3.45;;
80987;SDS011;70452;39.386;-3.210;2024-01-10T10:22:13;11.63;;;4.22;;
80987;SDS011;70452;39.386;-3.210;2024-01-10T10:24:51;10.90;;;4.93;;
80987;SDS011;70452;39.386;-3.210;2024-01-10T10:27:39;10.23;;;3.90;;
80987;SDS011;70452;39.386;-3.210;2024-01-10T10:30:14;11.50;;;4.15;;
80987;SDS011;70452;39.386;-3.210;2024-01-10T10:32:48;8.27;;;2.83;;
80987;SDS011;70452;39.386;-3.210;2024-01-10T10:35:21;8.95;;;3.17;;
80987;SDS011;70452;39.386;-3.210;2024-01-10T10:37:53;8.98;;;3.53;;
80987;SDS011;70452;39.386;-3.210;2024-01-10T10:40:39;8.68;;;3.47;;
80987;SDS011;70452;39.386;-3.210;2024-01-10T10:43:16;10.48;;;3.47;;
80987;SDS011;70452;39.386;-3.210;2024-01-10T10:48:32;9.05;;;2.63;;
80987;SDS011;70452;39.386;-3.210;2024-01-10T10:51:08;8.00;;;3.13;;
80987;SDS011;70452;39.386;-3.210;2024-01-10T10:53:42;8.93;;;3.85;;
80987;SDS011;70452;39.386;-3.210;2024-01-10T10:56:15;8.32;;;3.20;;
80987;SDS011;70452;39.386;-3.210;2024-01-10T10:58:53;8.57;;;2.63;;
80987;SDS011;70452;39.386;-3.210;2024-01-10T11:01:22;7.68;;;3.10;;
80987;SDS011;70452;39.386;-3.210;2024-01-10T11:03:58;9.20;;;3.28;;
80987;SDS011;70452;39.386;-3.210;2024-01-10T11:06:32;10.60;;;3.60;;
80987;SDS011;70452;39.386;-3.210;2024-01-10T11:09:08;9.48;;;3.92;;
80987;SDS011;70452;39.386;-3.210;2024-01-10T11:20:04;7.68;;;2.17;;
80987;SDS011;70452;39.386;-3.210;2024-01-10T11:25:35;8.30;;;3.17;;
80987;SDS011;70452;39.386;-3.210;2024-01-10T11:28:11;9.43;;;3.03;;
80987;SDS011;70452;39.386;-3.210;2024-01-10T11:30:52;10.32;;;3.45;;
80987;SDS011;70452;39.386;-3.210;2024-01-10T11:33:35;9.63;;;4.00;;
80987;SDS011;70452;39.386;-3.210;2024-01-10T11:36:14;8.60;;;4.15;;
80987;SDS011;70452;39.386;-3.210;2024-01-10T11:38:55;8.25;;;3.58;;
80987;SDS011;70452;39.386;-3.210;2024-01-10T11:41:32;8.93;;;3.60;;
80987;SDS011;70452;39.386;-3.210;2024-01-10T11:46:57;10.50;;;4.53;;
80987;SDS011;70452;39.386;-3.210;2024-01-10T11:49:27;10.25;;;4.70;;
80987;SDS011;70452;39.386;-3.210;2024-01-10T11:52:02;10.80;;;5.78;;
80987;SDS011;70452;39.386;-3.210;2024-01-10T11:57:19;11.73;;;5.03;;
80987;SDS011;70452;39.386;-3.210;2024-01-10T12:02:33;14.27;;;5.53;;
80987;SDS011;70452;39.386;-3.210;2024-01-10T12:05:06;10.75;;;4.68;;
80987;SDS011;70452;39.386;-3.210;2024-01-10T12:07:44;10.13;;;3.65;;
80987;SDS011;70452;39.386;-3.210;2024-01-10T12:10:21;9.40;;;3.50;;
80987;SDS011;70452;39.386;-3.210;2024-01-10T12:13:04;12.05;;;3.78;;
80987;SDS011;70452;39.386;-3.210;2024-01-10T12:15:36;12.57;;;4.95;;
80987;SDS011;70452;39.386;-3.210;2024-01-10T12:18:10;12.52;;;4.28;;
80987;SDS011;70452;39.386;-3.210;2024-01-10T12:20:43;11.90;;;4.30;;
80987;SDS011;70452;39.386;-3.210;2024-01-10T12:23:13;17.67;;;5.32;;
80987;SDS011;70452;39.386;-3.210;2024-01-10T12:25:47;12.43;;;4.60;;
80987;SDS011;70452;39.386;-3.210;2024-01-10T12:28:19;9.18;;;2.40;;
80987;SDS011;70452;39.386;-3.210;2024-01-10T12:30:55;8.05;;;2.35;;
80987;SDS011;70452;39.386;-3.210;2024-01-10T12:33:30;7.97;;;2.30;;
80987;SDS011;70452;39.386;-3.210;2024-01-10T12:36:08;8.30;;;3.22;;
80987;SDS011;70452;39.386;-3.210;2024-01-10T12:38:43;9.45;;;2.90;;
80987;SDS011;70452;39.386;-3.210;2024-01-10T12:41:16;6.85;;;1.90;;
80987;SDS011;70452;39.386;-3.210;2024-01-10T12:43:52;5.72;;;0.98;;
80987;SDS011;70452;39.386;-3.210;2024-01-10T12:46:26;5.60;;;1.20;;
80987;SDS011;70452;39.386;-3.210;2024-01-10T12:49:06;6.00;;;1.38;;
80987;SDS011;70452;39.386;-3.210;2024-01-10T12:51:40;5.47;;;1.42;;
80987;SDS011;70452;39.386;-3.210;2024-01-10T12:54:09;5.47;;;1.10;;
80987;SDS011;70452;39.386;-3.210;2024-01-10T12:56:46;4.47;;;0.82;;
80987;SDS011;70452;39.386;-3.210;2024-01-10T12:59:23;5.00;;;1.10;;
80987;SDS011;70452;39.386;-3.210;2024-01-10T13:02:01;4.72;;;1.20;;
80987;SDS011;70452;39.386;-3.210;2024-01-10T13:04:30;5.40;;;1.27;;
80987;SDS011;70452;39.386;-3.210;2024-01-10T13:07:08;5.03;;;0.80;;
80987;SDS011;70452;39.386;-3.210;2024-01-10T13:09:48;5.70;;;0.98;;
80987;SDS011;70452;39.386;-3.210;2024-01-10T13:12:23;5.85;;;1.40;;
80987;SDS011;70452;39.386;-3.210;2024-01-10T13:14:59;12.52;;;3.90;;
80987;SDS011;70452;39.386;-3.210;2024-01-10T13:17:33;12.10;;;3.58;;
80987;SDS011;70452;39.386;-3.210;2024-01-10T13:20:08;6.05;;;1.40;;
80987;SDS011;70452;39.386;-3.210;2024-01-10T13:22:41;6.60;;;2.17;;
80987;SDS011;70452;39.386;-3.210;2024-01-10T13:25:11;8.93;;;2.83;;
80987;SDS011;70452;39.386;-3.210;2024-01-10T13:27:55;10.40;;;3.80;;
80987;SDS011;70452;39.386;-3.210;2024-01-10T13:30:32;5.35;;;1.05;;
80987;SDS011;70452;39.386;-3.210;2024-01-10T13:33:21;10.07;;;3.10;;
80987;SDS011;70452;39.386;-3.210;2024-01-10T13:35:55;12.35;;;6.60;;
80987;SDS011;70452;39.386;-3.210;2024-01-10T13:38:32;14.20;;;7.03;;
80987;SDS011;70452;39.386;-3.210;2024-01-10T13:41:03;11.73;;;5.32;;
80987;SDS011;70452;39.386;-3.210;2024-01-10T13:43:34;17.90;;;8.60;;
80987;SDS011;70452;39.386;-3.210;2024-01-10T13:46:06;18.17;;;8.98;;
80987;SDS011;70452;39.386;-3.210;2024-01-10T13:48:37;9.50;;;3.47;;
80987;SDS011;70452;39.386;-3.210;2024-01-10T13:51:09;14.27;;;7.13;;
80987;SDS011;70452;39.386;-3.210;2024-01-10T13:53:40;12.80;;;5.35;;
80987;SDS011;70452;39.386;-3.210;2024-01-10T13:56:13;14.85;;;5.53;;
80987;SDS011;70452;39.386;-3.210;2024-01-10T13:58:47;17.73;;;8.45;;
80987;SDS011;70452;39.386;-3.210;2024-01-10T14:01:22;11.73;;;4.00;;
80987;SDS011;70452;39.386;-3.210;2024-01-10T14:04:00;11.05;;;4.68;;
80987;SDS011;70452;39.386;-3.210;2024-01-10T14:06:35;12.73;;;4.55;;
80987;SDS011;70452;39.386;-3.210;2024-01-10T14:11:53;13.43;;;5.28;;
80987;SDS011;70452;39.386;-3.210;2024-01-10T14:14:27;10.60;;;3.67;;
80987;SDS011;70452;39.386;-3.210;2024-01-10T14:19:34;10.32;;;3.67;;
80987;SDS011;70452;39.386;-3.210;2024-01-10T14:22:09;13.40;;;4.38;;
80987;SDS011;70452;39.386;-3.210;2024-01-10T14:24:45;10.00;;;3.20;;
80987;SDS011;70452;39.386;-3.210;2024-01-10T14:27:42;8.70;;;3.15;;
80987;SDS011;70452;39.386;-3.210;2024-01-10T14:30:14;11.63;;;4.00;;
80987;SDS011;70452;39.386;-3.210;2024-01-10T14:32:59;9.45;;;3.80;;
80987;SDS011;70452;39.386;-3.210;2024-01-10T14:35:31;11.07;;;4.18;;
80987;SDS011;70452;39.386;-3.210;2024-01-10T14:38:22;9.57;;;3.40;;
80987;SDS011;70452;39.386;-3.210;2024-01-10T14:40:54;9.32;;;3.65;;
80987;SDS011;70452;39.386;-3.210;2024-01-10T14:43:35;9.13;;;3.08;;
80987;SDS011;70452;39.386;-3.210;2024-01-10T14:46:12;7.43;;;2.78;;
80987;SDS011;70452;39.386;-3.210;2024-01-10T14:48:46;8.27;;;3.35;;
80987;SDS011;70452;39.386;-3.210;2024-01-10T14:51:17;7.75;;;2.78;;
80987;SDS011;70452;39.386;-3.210;2024-01-10T14:54:02;7.38;;;2.03;;
80987;SDS011;70452;39.386;-3.210;2024-01-10T14:56:35;8.73;;;2.22;;
80987;SDS011;70452;39.386;-3.210;2024-01-10T14:59:11;7.30;;;1.95;;
80987;SDS011;70452;39.386;-3.210;2024-01-10T15:01:44;6.63;;;1.98;;
80987;SDS011;70452;39.386;-3.210;2024-01-10T15:04:53;7.32;;;1.75;;
80987;SDS011;70452;39.386;-3.210;2024-01-10T15:07:25;5.97;;;1.38;;
80987;SDS011;70452;39.386;-3.210;2024-01-10T15:09:56;6.38;;;1.10;;
80987;SDS011;70452;39.386;-3.210;2024-01-10T15:12:33;5.60;;;1.27;;
80987;SDS011;70452;39.386;-3.210;2024-01-10T15:15:09;7.18;;;1.70;;
80987;SDS011;70452;39.386;-3.210;2024-01-10T15:17:35;5.38;;;1.80;;
80987;SDS011;70452;39.386;-3.210;2024-01-10T15:20:13;6.18;;;1.40;;
80987;SDS011;70452;39.386;-3.210;2024-01-10T15:22:42;7.63;;;1.70;;
80987;SDS011;70452;39.386;-3.210;2024-01-10T15:25:17;6.82;;;1.83;;
80987;SDS011;70452;39.386;-3.210;2024-01-10T15:27:52;7.65;;;1.63;;
80987;SDS011;70452;39.386;-3.210;2024-01-10T15:30:18;6.25;;;1.58;;
80987;SDS011;70452;39.386;-3.210;2024-01-10T15:32:53;5.50;;;1.15;;
80987;SDS011;70452;39.386;-3.210;2024-01-10T15:35:25;6.03;;;1.88;;
80987;SDS011;70452;39.386;-3.210;2024-01-10T15:37:56;6.78;;;1.40;;
80987;SDS011;70452;39.386;-3.210;2024-01-10T15:40:28;6.18;;;1.10;;
80987;SDS011;70452;39.386;-3.210;2024-01-10T15:42:59;4.88;;;1.13;;
80987;SDS011;70452;39.386;-3.210;2024-01-10T15:45:28;15.18;;;1.20;;
80987;SDS011;70452;39.386;-3.210;2024-01-10T15:48:00;4.82;;;1.08;;
80987;SDS011;70452;39.386;-3.210;2024-01-10T15:50:32;13.88;;;4.18;;